Time;durP1;ratioP1;P1;durP2;ratioP2;P2;SDS_P1;SDS_P2;PMS_P1;PMS_P2;Temp;Humidity;BMP_temperature;BMP_pressure;BME280_temperature;BME280_humidity;BME280_pressure;Samples;Min_cycle;Max_cycle;Signal;HPM_P1;HPM_P2
2020/12/03 00:00:46;;;;;;;12.80;5.57;;;4.90;99.90;;;;;;5051655;28;20494;-75
2020/12/03 00:03:20;;;;;;;12.77;7.40;;;4.90;99.90;;;;;;5049431;28;20488;-75
2020/12/03 00:05:53;;;;;;;10.83;6.33;;;4.80;99.90;;;;;;5054398;28;20529;-75
2020/12/03 00:08:19;;;;;;;8.23;5.60;;;5.00;99.90;;;;;;5058065;28;20438;-74
2020/12/03 00:10:46;;;;;;;8.80;5.90;;;5.10;99.90;;;;;;5030229;28;20484;-75
2020/12/03 00:13:17;;;;;;;12.17;6.30;;;5.10;99.90;;;;;;5054622;28;20828;-75
2020/12/03 00:15:45;;;;;;;5.27;4.03;;;5.10;99.90;;;;;;5049969;28;20531;-75
2020/12/03 00:18:11;;;;;;;10.00;6.00;;;5.10;99.90;;;;;;5053235;28;20461;-74
2020/12/03 00:20:38;;;;;;;11.27;6.27;;;5.00;99.90;;;;;;5054793;28;21011;-74
2020/12/03 00:23:05;;;;;;;11.80;6.80;;;4.90;99.90;;;;;;5050748;28;20443;-73
2020/12/03 00:25:32;;;;;;;10.63;6.60;;;4.70;99.90;;;;;;5052697;28;20480;-74
2020/12/03 00:27:59;;;;;;;2.90;2.40;;;4.80;99.90;;;;;;5052286;28;20482;-74
2020/12/03 00:30:26;;;;;;;8.03;4.50;;;4.90;99.90;;;;;;5054578;28;20930;-75
2020/12/03 00:32:54;;;;;;;10.40;6.20;;;4.80;99.90;;;;;;5046992;28;20438;-75
2020/12/03 00:35:22;;;;;;;4.83;3.90;;;4.90;99.90;;;;;;5052443;28;20454;-75
2020/12/03 00:37:50;;;;;;;9.93;4.37;;;4.80;99.90;;;;;;5053998;28;20458;-74
2020/12/03 00:40:17;;;;;;;14.03;5.50;;;4.80;99.90;;;;;;5048113;28;20936;-74
2020/12/03 00:42:44;;;;;;;6.90;4.37;;;4.80;99.90;;;;;;5052828;28;20438;-75
2020/12/03 00:45:11;;;;;;;6.43;5.40;;;4.80;99.90;;;;;;5042692;28;20591;-75
2020/12/03 00:47:39;;;;;;;8.37;6.30;;;4.90;99.90;;;;;;5042448;28;20508;-74
2020/12/03 00:50:07;;;;;;;10.03;5.93;;;4.80;99.90;;;;;;5038814;28;20526;-73
2020/12/03 00:52:34;;;;;;;9.43;6.87;;;4.80;99.90;;;;;;5041045;28;21827;-73
2020/12/03 00:55:01;;;;;;;7.20;4.00;;;4.80;99.90;;;;;;5038848;28;21020;-74
2020/12/03 00:57:27;;;;;;;10.40;8.20;;;4.80;99.90;;;;;;5047052;28;20459;-75
2020/12/03 00:59:54;;;;;;;12.87;5.67;;;4.70;99.90;;;;;;5043152;28;20573;-74
2020/12/03 01:02:21;;;;;;;13.50;5.67;;;4.80;99.90;;;;;;5056432;28;20448;-74
2020/12/03 01:04:47;;;;;;;9.23;7.93;;;4.90;99.90;;;;;;5048056;28;20561;-74
2020/12/03 01:07:15;;;;;;;4.47;4.07;;;4.90;99.90;;;;;;5056389;28;20546;-75
2020/12/03 01:09:42;;;;;;;6.80;5.13;;;5.00;99.90;;;;;;5056908;28;20446;-75
2020/12/03 01:12:10;;;;;;;10.40;5.60;;;5.00;99.90;;;;;;5049323;28;20440;-74
2020/12/03 01:14:38;;;;;;;13.80;7.83;;;4.80;99.90;;;;;;5051631;28;20475;-75
2020/12/03 01:17:06;;;;;;;11.60;6.27;;;4.90;99.90;;;;;;5052786;28;20456;-75
2020/12/03 01:19:33;;;;;;;9.70;6.00;;;4.90;99.90;;;;;;5051937;28;20481;-75
2020/12/03 01:22:01;;;;;;;6.93;3.63;;;4.90;99.90;;;;;;5048257;28;20483;-74
2020/12/03 01:24:28;;;;;;;12.50;8.30;;;4.90;99.90;;;;;;5048396;28;20461;-75
2020/12/03 01:26:55;;;;;;;8.67;7.47;;;4.80;99.90;;;;;;5046673;28;20468;-75
2020/12/03 01:29:23;;;;;;;10.50;5.93;;;4.80;99.90;;;;;;5047246;28;20754;-75
2020/12/03 01:31:50;;;;;;;8.83;6.40;;;4.90;99.90;;;;;;5049838;28;20518;-75
2020/12/03 01:34:16;;;;;;;12.80;9.00;;;4.90;99.90;;;;;;5052500;28;20464;-74
2020/12/03 01:36:43;;;;;;;17.20;5.33;;;4.80;99.90;;;;;;5055339;28;20491;-74
2020/12/03 01:39:10;;;;;;;15.93;8.13;;;4.80;99.90;;;;;;5048153;28;20427;-75
2020/12/03 01:41:38;;;;;;;11.60;8.03;;;4.60;99.90;;;;;;5054688;28;20990;-75
2020/12/03 01:44:04;;;;;;;10.70;6.67;;;4.70;99.90;;;;;;5051976;28;20483;-74
2020/12/03 01:46:31;;;;;;;13.63;7.63;;;4.70;99.90;;;;;;5057807;28;20455;-75
2020/12/03 01:49:03;;;;;;;6.57;4.67;;;4.80;99.90;;;;;;5031532;28;20454;-74
2020/12/03 01:51:36;;;;;;;7.30;6.60;;;4.80;99.90;;;;;;5049537;28;20524;-75
2020/12/03 01:54:06;;;;;;;12.73;7.63;;;4.80;99.90;;;;;;5054926;28;20480;-75
2020/12/03 01:56:54;;;;;;;7.20;6.57;;;4.90;99.90;;;;;;5054885;28;20495;-75
2020/12/03 01:59:22;;;;;;;18.60;9.50;;;5.00;99.90;;;;;;5054652;28;20861;-74
2020/12/03 02:01:49;;;;;;;10.63;8.60;;;4.90;99.90;;;;;;5048018;28;20455;-74
2020/12/03 02:04:16;;;;;;;11.00;6.80;;;4.80;99.90;;;;;;5052367;28;20442;-74
2020/12/03 02:06:43;;;;;;;9.20;7.30;;;4.80;99.90;;;;;;5050215;28;20490;-74
2020/12/03 02:09:13;;;;;;;11.73;8.07;;;4.70;99.90;;;;;;5051578;28;20504;-74
2020/12/03 02:11:40;;;;;;;9.50;5.33;;;4.80;99.90;;;;;;5051285;28;20434;-74
2020/12/03 02:14:10;;;;;;;9.70;6.27;;;4.80;99.90;;;;;;5050937;28;20511;-74
2020/12/03 02:16:39;;;;;;;14.50;8.17;;;4.90;99.90;;;;;;5051426;28;20471;-74
2020/12/03 02:19:16;;;;;;;13.83;7.63;;;4.80;99.90;;;;;;5051291;28;20506;-74
2020/12/03 02:21:45;;;;;;;23.97;7.33;;;4.70;99.90;;;;;;5057469;28;20471;-74
2020/12/03 02:24:12;;;;;;;11.77;6.47;;;4.90;99.90;;;;;;5045130;28;20483;-74
2020/12/03 02:26:47;;;;;;;15.80;10.33;;;4.90;99.90;;;;;;5045706;28;20467;-74
2020/12/03 02:29:17;;;;;;;10.13;5.90;;;5.00;99.90;;;;;;5052112;28;20470;-72
2020/12/03 02:31:44;;;;;;;10.37;6.73;;;4.80;99.90;;;;;;5055947;28;20862;-73
2020/12/03 02:34:11;;;;;;;8.53;5.60;;;4.60;99.90;;;;;;5048518;28;20477;-74
2020/12/03 02:36:37;;;;;;;8.83;7.33;;;4.70;99.90;;;;;;5050801;28;20588;-74
2020/12/03 02:39:06;;;;;;;11.07;7.37;;;4.70;99.90;;;;;;5055392;28;20509;-74
2020/12/03 02:41:32;;;;;;;10.10;6.60;;;4.80;99.90;;;;;;5055855;28;20517;-73
2020/12/03 02:43:59;;;;;;;14.60;7.83;;;4.80;99.90;;;;;;5050926;28;20806;-74
2020/12/03 02:46:26;;;;;;;9.83;6.13;;;4.90;99.90;;;;;;5052015;28;20490;-74
2020/12/03 02:48:53;;;;;;;11.60;7.03;;;4.80;99.90;;;;;;5055185;28;20527;-72
2020/12/03 02:51:20;;;;;;;9.30;6.03;;;4.70;99.90;;;;;;5049315;28;20904;-73
2020/12/03 02:53:47;;;;;;;11.43;9.27;;;4.70;99.90;;;;;;5048927;28;20470;-74
2020/12/03 02:56:14;;;;;;;6.63;3.93;;;4.80;99.90;;;;;;5046813;28;20511;-74
2020/12/03 02:58:41;;;;;;;13.97;6.27;;;5.00;99.90;;;;;;5046871;28;20908;-74
2020/12/03 03:01:08;;;;;;;7.43;6.27;;;5.10;99.90;;;;;;5049258;28;21046;-73
2020/12/03 03:03:34;;;;;;;14.90;9.60;;;5.00;99.90;;;;;;5047617;28;20434;-75
2020/12/03 03:06:01;;;;;;;12.80;6.70;;;5.00;99.90;;;;;;5048553;28;20454;-73
2020/12/03 03:08:28;;;;;;;16.53;7.10;;;5.00;99.90;;;;;;5049814;28;20493;-74
2020/12/03 03:10:54;;;;;;;8.00;6.37;;;5.00;99.90;;;;;;5046511;28;20455;-73
2020/12/03 03:13:22;;;;;;;9.83;5.43;;;5.10;99.90;;;;;;5067182;28;20451;-73
2020/12/03 03:15:49;;;;;;;9.53;5.20;;;5.10;99.90;;;;;;5071230;28;20501;-72
2020/12/03 03:18:15;;;;;;;6.47;5.77;;;5.10;99.90;;;;;;5066517;28;20495;-74
2020/12/03 03:20:42;;;;;;;13.50;7.77;;;5.00;99.90;;;;;;5059910;28;20483;-74
2020/12/03 03:23:09;;;;;;;11.60;7.10;;;5.00;99.90;;;;;;5054833;28;21419;-74
2020/12/03 03:25:35;;;;;;;8.97;5.37;;;5.10;99.90;;;;;;5050678;28;20507;-74
2020/12/03 03:28:02;;;;;;;12.57;8.20;;;5.00;99.90;;;;;;5054142;28;20491;-74
2020/12/03 03:30:30;;;;;;;8.50;5.70;;;5.10;99.90;;;;;;5049025;28;20437;-73
2020/12/03 03:32:56;;;;;;;7.57;4.10;;;5.10;99.90;;;;;;5051010;28;20456;-74
2020/12/03 03:35:23;;;;;;;13.50;7.73;;;5.10;99.90;;;;;;5052215;28;20478;-74
2020/12/03 03:37:50;;;;;;;8.57;4.60;;;5.10;99.90;;;;;;5044239;28;20452;-73
2020/12/03 03:40:16;;;;;;;6.23;5.63;;;5.00;99.90;;;;;;5045731;28;20481;-74
2020/12/03 03:42:43;;;;;;;6.07;4.73;;;4.90;99.90;;;;;;5049338;28;20438;-73
2020/12/03 03:45:11;;;;;;;7.17;5.63;;;5.00;99.90;;;;;;5054267;28;20735;-74
2020/12/03 03:47:39;;;;;;;11.43;7.40;;;5.10;99.90;;;;;;5051822;28;20503;-73
2020/12/03 03:50:06;;;;;;;8.53;5.67;;;5.10;99.90;;;;;;5054686;28;20455;-73
2020/12/03 03:52:33;;;;;;;15.53;8.33;;;5.10;99.90;;;;;;5053430;28;20528;-74
2020/12/03 03:55:00;;;;;;;11.07;6.63;;;5.10;99.90;;;;;;5052931;28;20560;-73
2020/12/03 03:57:27;;;;;;;15.27;8.20;;;5.00;99.90;;;;;;5049727;28;20455;-74
2020/12/03 03:59:54;;;;;;;8.50;5.87;;;5.00;99.90;;;;;;5053296;28;20774;-75
2020/12/03 04:02:23;;;;;;;8.13;7.33;;;5.10;99.90;;;;;;5053966;28;20474;-73
2020/12/03 04:04:52;;;;;;;9.73;5.23;;;5.10;99.90;;;;;;5058998;28;21012;-73
2020/12/03 04:07:19;;;;;;;8.60;6.17;;;5.10;99.90;;;;;;5043724;28;20860;-74
2020/12/03 04:09:46;;;;;;;12.70;8.03;;;5.10;99.90;;;;;;5047966;28;20462;-74
2020/12/03 04:12:13;;;;;;;14.70;6.70;;;5.00;99.90;;;;;;5046326;28;20433;-74
2020/12/03 04:14:40;;;;;;;6.20;5.13;;;5.00;99.90;;;;;;5044825;28;20441;-75
2020/12/03 04:17:07;;;;;;;4.80;3.53;;;5.00;99.90;;;;;;5046950;28;20446;-74
2020/12/03 04:19:33;;;;;;;7.60;5.40;;;4.80;99.90;;;;;;5047646;28;20869;-74
2020/12/03 04:22:01;;;;;;;6.33;3.87;;;4.70;99.90;;;;;;5050656;28;20470;-74
2020/12/03 04:24:27;;;;;;;8.10;7.40;;;4.60;99.90;;;;;;5048178;28;20604;-73
2020/12/03 04:26:54;;;;;;;9.90;5.67;;;4.80;99.90;;;;;;5049323;28;20456;-74
2020/12/03 04:29:21;;;;;;;8.77;5.97;;;4.80;99.90;;;;;;5042705;28;20459;-74
2020/12/03 04:31:47;;;;;;;8.40;6.73;;;4.80;99.90;;;;;;5042637;28;20468;-74
2020/12/03 04:34:14;;;;;;;8.97;5.20;;;4.80;99.90;;;;;;5043170;28;20496;-73
2020/12/03 04:36:44;;;;;;;5.90;5.40;;;4.80;99.90;;;;;;5028238;28;20818;-73
2020/12/03 04:39:11;;;;;;;10.60;6.83;;;4.70;99.90;;;;;;5049985;28;20415;-74
2020/12/03 04:41:39;;;;;;;3.20;2.90;;;4.70;99.90;;;;;;5047207;28;20598;-73
2020/12/03 04:44:21;;;;;;;9.97;6.30;;;4.80;99.90;;;;;;5040730;28;20555;-75
2020/12/03 04:46:57;;;;;;;11.23;6.13;;;4.90;99.90;;;;;;5047761;28;20500;-74
2020/12/03 04:49:31;;;;;;;7.40;5.30;;;4.90;99.90;;;;;;5041508;28;20467;-73
2020/12/03 04:52:42;;;;;;;8.40;6.17;;;4.70;99.90;;;;;;5049192;28;20521;-74
2020/12/03 04:55:25;;;;;;;8.17;4.93;;;4.80;99.90;;;;;;5033319;28;20468;-73
2020/12/03 04:58:01;;;;;;;3.43;2.67;;;4.80;99.90;;;;;;5047813;28;20885;-74
2020/12/03 05:00:40;;;;;;;11.20;6.73;;;4.80;99.90;;;;;;5047322;28;20478;-74
2020/12/03 05:03:32;;;;;;;8.27;6.07;;;4.80;99.90;;;;;;5047846;28;20445;-74
2020/12/03 05:06:13;;;;;;;5.00;3.30;;;4.70;99.90;;;;;;5045336;28;20459;-74
2020/12/03 05:08:46;;;;;;;11.33;5.93;;;4.70;99.90;;;;;;5051103;28;20560;-74
2020/12/03 05:11:24;;;;;;;8.73;3.90;;;4.70;99.90;;;;;;5044926;28;20963;-75
2020/12/03 05:14:01;;;;;;;4.93;3.40;;;4.80;99.90;;;;;;5059005;28;21024;-73
2020/12/03 05:16:34;;;;;;;4.47;3.90;;;4.80;99.90;;;;;;5046152;28;20439;-74
2020/12/03 05:19:03;;;;;;;6.50;5.03;;;4.80;99.90;;;;;;5049871;28;20769;-73
2020/12/03 05:21:33;;;;;;;1.77;1.60;;;5.00;99.90;;;;;;5053210;28;20455;-74
2020/12/03 05:23:59;;;;;;;9.10;5.97;;;4.80;99.90;;;;;;5046245;28;20462;-74
2020/12/03 05:26:31;;;;;;;9.07;6.90;;;4.90;99.90;;;;;;5037520;28;20460;-74
2020/12/03 05:29:01;;;;;;;8.20;5.97;;;4.90;99.90;;;;;;5048361;28;20524;-73
2020/12/03 05:31:35;;;;;;;8.17;4.80;;;4.90;99.90;;;;;;5051597;28;20426;-73
2020/12/03 05:34:08;;;;;;;5.57;3.70;;;4.90;99.90;;;;;;5048281;28;20945;-74
2020/12/03 05:36:38;;;;;;;4.10;3.47;;;4.90;99.90;;;;;;5056864;28;20943;-74
2020/12/03 05:39:09;;;;;;;8.77;5.30;;;4.80;99.90;;;;;;5057573;28;20503;-73
2020/12/03 05:41:45;;;;;;;7.67;3.97;;;4.70;99.90;;;;;;5048022;28;21000;-75
2020/12/03 05:44:30;;;;;;;6.60;4.23;;;4.70;99.90;;;;;;5048516;28;20457;-75
2020/12/03 05:46:58;;;;;;;8.23;5.07;;;4.60;99.90;;;;;;5055094;28;20470;-74
2020/12/03 05:49:28;;;;;;;9.37;5.77;;;4.70;99.90;;;;;;5049068;28;20512;-74
2020/12/03 05:52:14;;;;;;;5.27;4.50;;;4.60;99.90;;;;;;5050513;28;20932;-74
2020/12/03 05:55:07;;;;;;;7.83;4.87;;;4.70;99.90;;;;;;5047852;28;20458;-75
2020/12/03 05:57:37;;;;;;;5.90;3.80;;;4.60;99.90;;;;;;5056643;28;20451;-74
2020/12/03 06:00:24;;;;;;;7.00;4.50;;;4.80;99.90;;;;;;5053150;28;20528;-74
2020/12/03 06:03:05;;;;;;;7.73;4.67;;;4.70;99.90;;;;;;5049345;28;20466;-73
2020/12/03 06:05:39;;;;;;;6.93;5.80;;;4.70;99.90;;;;;;5051880;28;20841;-74
2020/12/03 06:08:27;;;;;;;10.50;5.90;;;4.70;99.90;;;;;;5053457;28;20449;-73
2020/12/03 06:11:17;;;;;;;16.03;6.17;;;4.70;99.90;;;;;;5058119;28;20441;-72
2020/12/03 06:14:14;;;;;;;8.63;6.20;;;4.70;99.90;;;;;;5050280;28;20484;-74
2020/12/03 06:16:45;;;;;;;7.73;5.20;;;4.70;99.90;;;;;;5054283;28;20522;-74
2020/12/03 06:19:40;;;;;;;6.73;3.70;;;4.60;99.90;;;;;;5053487;28;20504;-73
2020/12/03 06:22:16;;;;;;;13.37;4.63;;;4.70;99.90;;;;;;5046635;28;21025;-74
2020/12/03 06:25:18;;;;;;;14.00;6.20;;;4.60;99.90;;;;;;5050134;28;20454;-74
2020/12/03 06:28:04;;;;;;;3.77;3.40;;;4.70;99.90;;;;;;5056793;28;21137;-74
2020/12/03 06:30:34;;;;;;;5.60;3.60;;;4.70;99.90;;;;;;5047173;28;20561;-73
2020/12/03 06:33:28;;;;;;;10.37;4.40;;;4.70;99.90;;;;;;5050384;28;20811;-73
2020/12/03 06:36:00;;;;;;;2.73;2.33;;;4.60;99.90;;;;;;5066495;28;20457;-74
2020/12/03 06:38:34;;;;;;;14.40;4.40;;;4.60;99.90;;;;;;5050789;28;20790;-75
2020/12/03 06:41:21;;;;;;;9.57;6.00;;;4.60;99.90;;;;;;5052598;28;20470;-73
2020/12/03 06:43:51;;;;;;;4.13;3.83;;;4.60;99.90;;;;;;5049480;28;20473;-73
2020/12/03 06:46:42;;;;;;;9.83;4.57;;;4.70;99.90;;;;;;5053289;28;20905;-73
2020/12/03 06:49:36;;;;;;;6.70;4.33;;;4.80;99.90;;;;;;5053602;28;20521;-73
2020/12/03 06:52:48;;;;;;;9.30;4.37;;;4.80;99.90;;;;;;5066816;28;20434;-71
2020/12/03 06:55:55;;;;;;;5.60;4.53;;;4.70;99.90;;;;;;5057262;28;20795;-73
2020/12/03 06:59:03;;;;;;;6.20;4.73;;;4.70;99.90;;;;;;5062759;28;20537;-73
2020/12/03 07:02:04;;;;;;;4.07;2.73;;;4.80;99.90;;;;;;5044494;28;20498;-74
2020/12/03 07:05:03;;;;;;;9.50;6.13;;;4.70;99.90;;;;;;5066894;28;20449;-74
2020/12/03 07:08:04;;;;;;;6.17;4.10;;;4.70;99.90;;;;;;5058731;28;20434;-74
2020/12/03 07:11:10;;;;;;;13.67;5.20;;;4.70;99.90;;;;;;5056966;28;20456;-74
2020/12/03 07:14:24;;;;;;;9.73;4.60;;;4.60;99.90;;;;;;5058211;28;20467;-74
2020/12/03 07:17:39;;;;;;;6.67;4.97;;;4.70;99.90;;;;;;5055496;28;20434;-75
2020/12/03 07:20:40;;;;;;;11.10;5.37;;;4.70;99.90;;;;;;5000457;28;20432;-74
2020/12/03 07:23:11;;;;;;;6.40;4.37;;;4.90;99.90;;;;;;5055486;28;20459;-73
2020/12/03 07:25:40;;;;;;;6.30;4.80;;;4.90;99.90;;;;;;5062423;28;20512;-75
2020/12/03 07:28:16;;;;;;;6.53;5.20;;;5.00;99.90;;;;;;5060919;28;20507;-74
2020/12/03 07:30:55;;;;;;;4.90;3.37;;;5.00;99.90;;;;;;5060361;28;20480;-74
2020/12/03 07:33:36;;;;;;;5.80;4.67;;;4.90;99.90;;;;;;5050185;28;20427;-74
2020/12/03 07:36:30;;;;;;;3.23;2.67;;;5.00;99.90;;;;;;5069141;28;20481;-74
2020/12/03 07:39:02;;;;;;;4.80;3.90;;;5.10;99.90;;;;;;5057976;28;20434;-74
2020/12/03 07:41:30;;;;;;;5.30;4.33;;;5.00;99.90;;;;;;5054560;28;20488;-75
2020/12/03 07:44:06;;;;;;;7.67;4.93;;;5.10;99.90;;;;;;5063362;28;20463;-75
2020/12/03 07:46:36;;;;;;;11.60;5.67;;;5.00;99.90;;;;;;5061598;28;20441;-74
2020/12/03 07:49:05;;;;;;;6.13;3.97;;;5.10;99.90;;;;;;5056942;28;20454;-74
2020/12/03 07:51:32;;;;;;;7.60;4.93;;;5.20;99.90;;;;;;5051678;28;20434;-74
2020/12/03 07:54:22;;;;;;;14.00;6.27;;;5.20;99.90;;;;;;5054315;28;20822;-73
2020/12/03 07:56:49;;;;;;;9.97;6.40;;;5.20;99.90;;;;;;5053281;28;20546;-73
2020/12/03 07:59:39;;;;;;;6.80;5.20;;;5.10;99.90;;;;;;5051881;28;20473;-74
2020/12/03 08:02:57;;;;;;;4.93;3.90;;;5.10;99.90;;;;;;5053082;28;20845;-74
2020/12/03 08:05:56;;;;;;;8.67;4.30;;;5.00;99.90;;;;;;4980564;28;20482;-73
2020/12/03 08:08:35;;;;;;;9.10;5.20;;;4.80;99.90;;;;;;4978869;28;20912;-73
2020/12/03 08:11:02;;;;;;;9.53;5.17;;;4.80;99.90;;;;;;5034666;28;20434;-72
2020/12/03 08:13:31;;;;;;;8.00;4.80;;;4.80;99.90;;;;;;5059906;28;20477;-73
2020/12/03 08:16:06;;;;;;;5.33;2.93;;;4.80;99.90;;;;;;5067517;28;20969;-73
2020/12/03 08:18:45;;;;;;;2.70;2.10;;;4.80;99.90;;;;;;5061089;28;20482;-73
2020/12/03 08:21:14;;;;;;;8.90;2.80;;;4.70;99.90;;;;;;5061532;28;20439;-73
2020/12/03 08:23:50;;;;;;;3.43;3.20;;;4.70;99.90;;;;;;5060809;28;20430;-73
2020/12/03 08:26:27;;;;;;;9.60;4.57;;;4.80;99.90;;;;;;5060539;28;20842;-73
2020/12/03 08:28:56;;;;;;;6.30;3.40;;;4.70;99.90;;;;;;5066099;28;20563;-73
2020/12/03 08:31:22;;;;;;;6.90;4.80;;;4.90;99.90;;;;;;5052414;28;20480;-73
2020/12/03 08:33:53;;;;;;;9.43;8.60;;;4.90;99.90;;;;;;5065494;28;20452;-73
2020/12/03 08:36:22;;;;;;;12.83;6.80;;;4.90;99.90;;;;;;5052785;28;20447;-73
2020/12/03 08:38:54;;;;;;;9.70;5.77;;;5.00;99.90;;;;;;5059867;28;20430;-73
2020/12/03 08:41:26;;;;;;;7.43;4.00;;;5.00;99.90;;;;;;5057279;28;20517;-73
2020/12/03 08:43:58;;;;;;;8.17;5.20;;;4.90;99.90;;;;;;5055615;28;20886;-73
2020/12/03 08:46:25;;;;;;;4.77;3.57;;;4.90;99.90;;;;;;5051837;28;20813;-73
2020/12/03 08:48:53;;;;;;;12.77;7.50;;;4.90;99.90;;;;;;5055786;28;20518;-72
2020/12/03 08:51:20;;;;;;;3.57;2.40;;;4.90;99.90;;;;;;5061703;28;21145;-73
2020/12/03 08:53:48;;;;;;;1.53;1.43;;;4.90;99.90;;;;;;5051933;28;20480;-73
2020/12/03 08:56:38;;;;;;;8.30;5.33;;;4.70;99.90;;;;;;5057198;28;20554;-73
2020/12/03 08:59:11;;;;;;;2.80;2.60;;;4.80;99.90;;;;;;5058324;28;20478;-73
2020/12/03 09:01:41;;;;;;;9.53;6.40;;;4.90;99.90;;;;;;5050654;28;20434;-74
2020/12/03 09:04:10;;;;;;;8.50;5.17;;;5.00;99.90;;;;;;5060308;28;21750;-73
2020/12/03 09:06:47;;;;;;;6.73;4.23;;;4.90;99.90;;;;;;5055511;28;20949;-75
2020/12/03 09:09:17;;;;;;;7.10;4.27;;;4.90;99.90;;;;;;5049763;28;20475;-73
2020/12/03 09:11:45;;;;;;;5.17;4.03;;;4.90;99.90;;;;;;5058324;28;20513;-75
2020/12/03 09:14:12;;;;;;;8.03;4.40;;;4.90;99.90;;;;;;5052352;28;20857;-73
2020/12/03 09:16:43;;;;;;;5.60;3.13;;;5.00;99.90;;;;;;5053337;28;20434;-73
2020/12/03 09:19:10;;;;;;;4.83;2.80;;;4.90;99.90;;;;;;5044212;28;20491;-74
2020/12/03 09:21:41;;;;;;;6.33;4.70;;;5.10;99.90;;;;;;5059180;28;20427;-73
2020/12/03 09:24:10;;;;;;;3.17;2.90;;;4.90;99.90;;;;;;5060233;28;20462;-73
2020/12/03 09:26:40;;;;;;;4.40;2.83;;;5.00;99.90;;;;;;5056228;28;20517;-73
2020/12/03 09:29:11;;;;;;;12.10;7.17;;;4.90;99.90;;;;;;5050129;28;20516;-72
2020/12/03 09:31:37;;;;;;;10.63;7.40;;;5.00;99.90;;;;;;5056213;28;20457;-74
2020/12/03 09:34:06;;;;;;;7.13;5.03;;;5.10;99.90;;;;;;5060288;28;20470;-74
2020/12/03 09:36:34;;;;;;;5.50;3.13;;;5.20;99.90;;;;;;5067342;28;20441;-73
2020/12/03 09:39:01;;;;;;;6.63;5.93;;;5.10;99.90;;;;;;5064730;28;20425;-73
2020/12/03 09:41:27;;;;;;;4.50;3.23;;;5.00;99.90;;;;;;5070736;28;20425;-73
2020/12/03 09:43:58;;;;;;;6.23;4.43;;;5.00;99.90;;;;;;5066502;28;20501;-72
2020/12/03 09:46:27;;;;;;;4.53;4.13;;;5.00;99.90;;;;;;5061316;28;20570;-73
2020/12/03 09:48:54;;;;;;;8.47;4.67;;;5.00;99.90;;;;;;5067547;28;20490;-73
2020/12/03 09:51:22;;;;;;;5.53;3.80;;;5.00;99.90;;;;;;5065811;28;20962;-73
2020/12/03 09:53:50;;;;;;;7.47;3.90;;;5.00;99.90;;;;;;5068248;28;20473;-73
2020/12/03 09:56:17;;;;;;;6.73;4.63;;;5.10;99.90;;;;;;5059582;28;20434;-73
2020/12/03 09:58:43;;;;;;;5.13;4.33;;;5.00;99.90;;;;;;5058899;28;20462;-73
2020/12/03 10:01:11;;;;;;;8.03;6.40;;;5.20;99.90;;;;;;5061683;28;20449;-74
2020/12/03 10:04:16;;;;;;;10.90;6.03;;;5.20;99.90;;;;;;5065585;28;20479;-74
2020/12/03 10:06:54;;;;;;;7.33;5.93;;;5.20;99.90;;;;;;5061186;28;20463;-73
2020/12/03 10:09:36;;;;;;;6.37;4.67;;;5.20;99.90;;;;;;5067967;28;20791;-74
2020/12/03 10:12:37;;;;;;;9.13;6.40;;;5.30;99.90;;;;;;5062501;28;20484;-73
2020/12/03 10:15:27;;;;;;;7.63;4.67;;;5.50;99.90;;;;;;5066454;28;20514;-73
2020/12/03 10:18:09;;;;;;;2.50;2.20;;;5.30;99.90;;;;;;5061704;28;20520;-72
2020/12/03 10:20:37;;;;;;;3.70;3.20;;;5.20;99.90;;;;;;5058786;28;20475;-73
2020/12/03 10:23:37;;;;;;;2.47;2.27;;;5.20;99.90;;;;;;5065040;28;20471;-74
2020/12/03 10:26:16;;;;;;;5.00;3.83;;;5.40;99.90;;;;;;5059608;28;20554;-73
2020/12/03 10:28:49;;;;;;;4.33;3.70;;;5.30;99.90;;;;;;5071056;28;20466;-73
2020/12/03 10:31:16;;;;;;;6.83;2.70;;;5.40;99.90;;;;;;5072421;28;20430;-74
2020/12/03 10:33:48;;;;;;;2.37;2.13;;;5.60;99.90;;;;;;5071037;28;20911;-73
2020/12/03 10:36:27;;;;;;;7.17;5.90;;;5.60;99.90;;;;;;5059433;28;20541;-73
2020/12/03 10:38:56;;;;;;;5.17;4.40;;;5.70;99.90;;;;;;5069574;28;21095;-74
2020/12/03 10:41:31;;;;;;;9.10;4.23;;;5.70;99.90;;;;;;5073343;28;20458;-73
2020/12/03 10:44:02;;;;;;;8.93;4.20;;;5.60;99.90;;;;;;5078492;28;20440;-73
2020/12/03 10:46:36;;;;;;;3.20;2.10;;;5.60;99.90;;;;;;5056410;28;20566;-73
2020/12/03 10:49:03;;;;;;;4.50;2.20;;;5.40;99.90;;;;;;5061825;28;20486;-73
2020/12/03 10:51:30;;;;;;;2.07;1.20;;;5.40;99.90;;;;;;5066270;28;21120;-74
2020/12/03 10:53:57;;;;;;;6.53;4.93;;;5.50;99.90;;;;;;5064789;28;20496;-74
2020/12/03 10:56:30;;;;;;;11.93;6.60;;;5.70;99.90;;;;;;5058989;28;20456;-73
2020/12/03 10:59:32;;;;;;;2.33;2.00;;;5.70;99.90;;;;;;5065717;28;20542;-73
2020/12/03 11:02:02;;;;;;;8.90;4.77;;;5.80;99.90;;;;;;5056984;28;20910;-74
2020/12/03 11:04:31;;;;;;;6.30;3.20;;;5.80;99.90;;;;;;5055486;28;20459;-73
2020/12/03 11:07:08;;;;;;;3.33;3.03;;;5.90;99.90;;;;;;5066074;28;20981;-74
2020/12/03 11:09:35;;;;;;;4.27;3.70;;;6.20;99.90;;;;;;5069512;28;21737;-73
2020/12/03 11:12:09;;;;;;;8.70;3.90;;;6.00;99.90;;;;;;5061495;28;20467;-73
2020/12/03 11:14:36;;;;;;;8.57;4.57;;;6.20;99.90;;;;;;5062445;28;20955;-73
2020/12/03 11:17:08;;;;;;;6.67;4.13;;;6.50;99.90;;;;;;5052908;28;20501;-74
2020/12/03 11:19:37;;;;;;;8.73;3.87;;;6.60;99.90;;;;;;5058722;28;20478;-73
2020/12/03 11:22:21;;;;;;;6.57;4.70;;;7.10;99.90;;;;;;5065009;28;20931;-73
2020/12/03 11:24:50;;;;;;;3.27;3.03;;;6.90;99.90;;;;;;5060316;28;20529;-74
2020/12/03 11:27:20;;;;;;;5.53;3.27;;;7.00;99.90;;;;;;5058547;28;20456;-73
2020/12/03 11:29:47;;;;;;;3.33;3.03;;;7.20;99.90;;;;;;5054017;28;20471;-73
2020/12/03 11:32:24;;;;;;;4.90;2.80;;;7.40;99.90;;;;;;5064311;28;20467;-73
2020/12/03 11:34:53;;;;;;;5.63;4.40;;;7.10;99.90;;;;;;5058109;28;20474;-74
2020/12/03 11:37:23;;;;;;;2.80;2.23;;;7.40;99.90;;;;;;5063757;28;20456;-73
2020/12/03 11:39:50;;;;;;;4.90;3.40;;;7.50;99.90;;;;;;5059820;28;20483;-72
2020/12/03 11:42:36;;;;;;;3.33;2.27;;;7.80;99.90;;;;;;5066547;28;20466;-74
2020/12/03 11:45:36;;;;;;;10.20;3.10;;;8.10;99.90;;;;;;5062641;28;20725;-73
2020/12/03 11:48:26;;;;;;;5.27;2.53;;;7.90;99.90;;;;;;5060698;28;20444;-74
2020/12/03 11:50:53;;;;;;;3.43;3.03;;;7.60;99.90;;;;;;5060176;28;20933;-75
2020/12/03 11:53:20;;;;;;;3.53;2.60;;;7.40;99.90;;;;;;5069966;28;20463;-74
2020/12/03 11:55:47;;;;;;;2.70;2.30;;;7.10;99.90;;;;;;5063669;28;20482;-74
2020/12/03 11:58:14;;;;;;;3.83;3.03;;;6.80;99.90;;;;;;5063630;28;20553;-74
2020/12/03 12:00:43;;;;;;;3.93;3.53;;;6.80;99.90;;;;;;5065737;28;20496;-73
2020/12/03 12:03:13;;;;;;;6.47;3.87;;;6.80;99.90;;;;;;5062790;28;20542;-73
2020/12/03 12:05:49;;;;;;;5.20;2.87;;;6.50;99.90;;;;;;5062845;28;20465;-73
2020/12/03 12:08:24;;;;;;;2.40;2.20;;;6.50;99.90;;;;;;5057673;28;20834;-73
2020/12/03 12:10:58;;;;;;;7.50;3.30;;;6.40;99.90;;;;;;5065148;28;20571;-73
2020/12/03 12:13:30;;;;;;;4.73;3.30;;;6.40;99.90;;;;;;5045537;28;20525;-74
2020/12/03 12:15:57;;;;;;;3.57;2.10;;;6.60;99.90;;;;;;5063007;28;20532;-73
2020/12/03 12:18:23;;;;;;;8.10;4.27;;;6.40;99.90;;;;;;5061965;28;20442;-73
2020/12/03 12:20:51;;;;;;;4.93;3.53;;;6.40;99.90;;;;;;5065996;28;20493;-73
2020/12/03 12:23:17;;;;;;;3.90;2.57;;;6.50;99.90;;;;;;5061154;28;20485;-74
2020/12/03 12:25:44;;;;;;;4.07;2.63;;;6.50;99.90;;;;;;5064801;28;20825;-74
2020/12/03 12:28:11;;;;;;;4.33;3.40;;;6.60;99.90;;;;;;5070997;28;20456;-74
2020/12/03 12:30:39;;;;;;;7.80;3.33;;;6.50;99.90;;;;;;5076964;28;20466;-74
2020/12/03 12:33:05;;;;;;;6.90;5.20;;;6.40;99.90;;;;;;5064739;28;20442;-72
2020/12/03 12:35:32;;;;;;;2.87;2.43;;;6.40;99.90;;;;;;5058412;28;20484;-74
2020/12/03 12:37:59;;;;;;;5.67;3.90;;;6.70;99.90;;;;;;5045288;28;20517;-74
2020/12/03 12:40:25;;;;;;;10.57;5.37;;;6.80;99.90;;;;;;5057320;28;20923;-74
2020/12/03 12:42:52;;;;;;;4.77;4.30;;;6.90;99.90;;;;;;5050836;28;20483;-73
2020/12/03 12:45:19;;;;;;;5.20;3.60;;;6.80;99.90;;;;;;5058650;28;20482;-73
2020/12/03 12:47:47;;;;;;;4.60;2.87;;;6.80;99.90;;;;;;5065121;28;20464;-74
2020/12/03 12:50:14;;;;;;;3.43;3.13;;;6.80;99.90;;;;;;5062970;28;20487;-74
2020/12/03 12:52:41;;;;;;;6.57;4.70;;;6.60;99.90;;;;;;5061124;28;20780;-74
2020/12/03 12:55:07;;;;;;;8.73;4.37;;;6.70;99.90;;;;;;5051534;28;20870;-73
2020/12/03 12:57:34;;;;;;;5.30;2.93;;;6.80;99.90;;;;;;5038782;28;20439;-74
2020/12/03 13:00:01;;;;;;;5.67;3.37;;;6.70;99.90;;;;;;5055218;28;20451;-74
2020/12/03 13:02:28;;;;;;;4.03;3.63;;;6.70;99.90;;;;;;5058638;28;20791;-74
2020/12/03 13:04:55;;;;;;;7.87;4.07;;;6.70;99.90;;;;;;5057390;28;20501;-73
2020/12/03 13:07:22;;;;;;;9.27;6.00;;;6.90;99.90;;;;;;5055044;28;20437;-74
2020/12/03 13:09:48;;;;;;;5.93;2.03;;;6.90;99.90;;;;;;5054791;28;20475;-74
2020/12/03 13:12:17;;;;;;;4.93;4.40;;;6.70;99.90;;;;;;5059030;28;20874;-74
2020/12/03 13:14:43;;;;;;;3.67;3.40;;;6.80;99.90;;;;;;5056792;28;20857;-74
2020/12/03 13:17:11;;;;;;;11.50;4.97;;;6.60;99.90;;;;;;5059412;28;20827;-74
2020/12/03 13:19:38;;;;;;;2.10;1.83;;;6.60;99.90;;;;;;5060867;28;20548;-73
2020/12/03 13:22:05;;;;;;;22.10;2.17;;;6.60;99.90;;;;;;5053326;28;20461;-74
2020/12/03 13:24:32;;;;;;;4.43;3.57;;;6.60;99.90;;;;;;5052507;28;20447;-74